Time;durP1;ratioP1;P1;durP2;ratioP2;P2;SDS_P1;SDS_P2;PMS_P1;PMS_P2;Temp;Humidity;BMP_temperature;BMP_pressure;BME280_temperature;BME280_humidity;BME280_pressure;Samples;Min_cycle;Max_cycle;Signal;HPM_P1;HPM_P2
2022/06/23 00:00:37;;;;;;;9.25;5.92;;;;;;;14.90;66.52;100062.95;1708845;82;25781;-64
2022/06/23 00:03:06;;;;;;;8.45;5.33;;;;;;;14.85;66.61;100065.91;1709452;82;27443;-64
2022/06/23 00:05:41;;;;;;;8.95;6.83;;;;;;;14.80;67.17;100070.23;1709459;82;25663;-64
2022/06/23 00:08:13;;;;;;;7.05;5.40;;;;;;;14.74;67.14;100070.23;1709534;82;25456;-65
2022/06/23 00:10:53;;;;;;;7.72;5.72;;;;;;;14.68;66.94;100072.41;1709561;82;26261;-65
2022/06/23 00:13:34;;;;;;;9.63;5.72;;;;;;;14.66;67.42;100068.42;1709658;82;25467;-64
2022/06/23 00:16:03;;;;;;;8.35;5.78;;;;;;;14.60;67.59;100067.87;1708884;83;27345;-64
2022/06/23 00:18:36;;;;;;;8.78;5.55;;;;;;;14.53;68.00;100068.98;1709570;82;25401;-64
2022/06/23 00:21:15;;;;;;;8.28;5.80;;;;;;;14.50;68.08;100069.66;1709619;82;25596;-64
2022/06/23 00:23:45;;;;;;;8.55;5.75;;;;;;;14.42;68.16;100065.12;1708801;82;25726;-65
2022/06/23 00:26:22;;;;;;;9.00;6.25;;;;;;;14.37;68.22;100073.75;1709689;83;25446;-64
2022/06/23 00:29:06;;;;;;;9.40;5.92;;;;;;;14.33;68.61;100076.90;1709532;82;27386;-65
2022/06/23 00:31:40;;;;;;;9.50;5.50;;;;;;;14.32;69.01;100075.88;1709548;82;25634;-64
2022/06/23 00:34:33;;;;;;;9.40;6.15;;;;;;;14.29;68.99;100082.02;1702251;83;25603;-66
2022/06/23 00:37:18;;;;;;;8.85;6.08;;;;;;;14.23;68.93;100082.78;1709557;82;25634;-64
2022/06/23 00:40:01;;;;;;;6.97;5.45;;;;;;;14.20;69.41;100080.77;1709572;83;25605;-64
2022/06/23 00:42:38;;;;;;;9.25;5.95;;;;;;;14.17;69.06;100081.44;1709679;82;27368;-65
2022/06/23 00:45:25;;;;;;;9.33;6.33;;;;;;;14.14;69.40;100084.25;1691441;83;25467;-66
2022/06/23 00:48:24;;;;;;;7.70;5.72;;;;;;;14.12;69.92;100091.17;1709685;82;25593;-66
2022/06/23 00:51:11;;;;;;;8.83;5.83;;;;;;;14.07;69.94;100081.88;1709700;83;25692;-65
2022/06/23 00:53:57;;;;;;;8.83;6.50;;;;;;;14.01;70.06;100086.72;1692130;83;25425;-66
2022/06/23 00:56:47;;;;;;;6.47;5.85;;;;;;;13.95;69.92;100086.72;1710188;83;27339;-66
2022/06/23 00:59:36;;;;;;;6.53;5.70;;;;;;;13.90;69.93;100087.72;1711804;82;25684;-64
2022/06/23 01:02:23;;;;;;;9.73;6.03;;;;;;;13.87;70.68;100091.11;1712021;82;25457;-65
2022/06/23 01:05:01;;;;;;;7.95;5.90;;;;;;;13.82;70.79;100083.98;1732636;82;26727;-65
2022/06/23 01:07:53;;;;;;;10.90;6.55;;;;;;;13.80;70.76;100088.15;1711388;82;25492;-65
2022/06/23 01:10:37;;;;;;;8.70;6.53;;;;;;;13.77;70.46;100088.81;1711830;82;27707;-64
2022/06/23 01:13:30;;;;;;;7.80;6.67;;;;;;;13.75;70.96;100087.00;1711333;82;25472;-64
2022/06/23 01:16:10;;;;;;;7.78;6.30;;;;;;;13.72;70.99;100083.59;1696866;82;25548;-64
2022/06/23 01:18:51;;;;;;;6.67;5.65;;;;;;;13.68;71.18;100087.55;1711897;82;25637;-66
2022/06/23 01:21:25;;;;;;;8.45;6.00;;;;;;;13.64;71.23;100084.70;1711232;82;25654;-65
2022/06/23 01:24:24;;;;;;;13.65;5.70;;;;;;;13.62;71.16;100082.08;1711767;82;27367;-66
2022/06/23 01:27:11;;;;;;;6.97;5.90;;;;;;;13.59;71.52;100078.12;1711735;82;25698;-65
2022/06/23 01:29:48;;;;;;;7.10;6.35;;;;;;;13.57;71.16;100079.56;1711916;82;25400;-64
2022/06/23 01:32:29;;;;;;;8.48;6.37;;;;;;;13.57;71.19;100079.56;1711831;82;25639;-66
2022/06/23 01:35:10;;;;;;;8.85;5.95;;;;;;;13.55;71.76;100078.56;1711884;82;25620;-64
2022/06/23 01:37:47;;;;;;;6.72;5.85;;;;;;;13.54;71.29;100080.26;1711826;83;26950;-65
2022/06/23 01:40:24;;;;;;;9.63;6.25;;;;;;;13.52;71.49;100092.81;1711315;82;25840;-65
2022/06/23 01:43:01;;;;;;;8.25;5.97;;;;;;;13.51;71.35;100096.65;1711528;82;25553;-63
2022/06/23 01:45:51;;;;;;;6.62;5.67;;;;;;;13.49;71.49;100096.19;1710557;82;25692;-64
2022/06/23 01:48:53;;;;;;;8.53;6.62;;;;;;;13.48;71.58;100096.52;1693267;82;25413;-65
2022/06/23 01:51:55;;;;;;;9.25;6.25;;;;;;;13.45;71.59;100092.56;1711866;82;27406;-66
2022/06/23 01:54:27;;;;;;;10.38;7.10;;;;;;;13.42;71.55;100089.94;1711504;82;25440;-65
2022/06/23 01:57:16;;;;;;;9.53;5.97;;;;;;;13.40;71.68;100092.73;1711577;83;25620;-66
2022/06/23 02:00:10;;;;;;;8.98;5.62;;;;;;;13.38;71.56;100097.72;1713093;82;27833;-66
2022/06/23 02:03:01;;;;;;;7.12;5.55;;;;;;;13.37;71.80;100098.86;1711700;83;25622;-63
2022/06/23 02:05:47;;;;;;;7.28;5.70;;;;;;;13.33;71.76;100096.02;1692026;82;28222;-65
2022/06/23 02:08:27;;;;;;;7.37;5.62;;;;;;;13.31;71.66;100092.00;1711534;82;25679;-64
2022/06/23 02:11:40;;;;;;;9.98;6.37;;;;;;;13.28;71.55;100094.83;1711563;82;25640;-66
2022/06/23 02:14:52;;;;;;;9.95;6.08;;;;;;;13.24;71.42;100098.74;1694877;82;26470;-64
2022/06/23 02:17:43;;;;;;;7.50;6.50;;;;;;;13.21;71.50;100101.33;1712370;83;25576;-65
2022/06/23 02:20:40;;;;;;;9.88;6.08;;;;;;;13.15;71.98;100102.10;1718072;82;28078;-64
2022/06/23 02:23:32;;;;;;;8.45;6.05;;;;;;;13.11;71.71;100097.11;1715861;82;25710;-66
2022/06/23 02:26:10;;;;;;;8.93;6.10;;;;;;;13.06;72.33;100099.45;1698797;82;25629;-65
2022/06/23 02:28:47;;;;;;;8.13;6.30;;;;;;;12.99;72.54;100096.47;1711273;82;25747;-66
2022/06/23 02:31:25;;;;;;;9.10;6.83;;;;;;;12.94;72.51;100096.67;1699373;82;25681;-65
2022/06/23 02:34:12;;;;;;;7.12;5.35;;;;;;;12.88;72.55;100102.05;1711546;82;27314;-66
2022/06/23 02:37:08;;;;;;;11.50;7.05;;;;;;;12.84;72.72;100104.63;1715756;82;25427;-65
2022/06/23 02:39:45;;;;;;;10.78;6.37;;;;;;;12.81;72.83;100113.41;1715842;82;25667;-65
2022/06/23 02:42:26;;;;;;;9.38;6.22;;;;;;;12.78;73.22;100113.28;1721177;82;25710;-65
2022/06/23 02:45:20;;;;;;;9.80;6.47;;;;;;;12.76;73.38;100111.46;1722617;82;25664;-66
2022/06/23 02:48:07;;;;;;;8.90;6.92;;;;;;;12.77;73.64;100121.17;1715566;82;28132;-66
2022/06/23 02:51:07;;;;;;;8.40;6.22;;;;;;;12.76;73.67;100123.10;1715944;82;25581;-65
2022/06/23 02:53:55;;;;;;;8.35;6.15;;;;;;;12.74;73.66;100121.85;1686763;83;25654;-65
2022/06/23 02:56:38;;;;;;;11.65;6.85;;;;;;;12.72;73.59;100127.61;1689549;83;25713;-67
2022/06/23 02:59:12;;;;;;;9.00;6.42;;;;;;;12.70;73.46;100125.75;1711812;82;25462;-65
2022/06/23 03:01:58;;;;;;;8.50;7.30;;;;;;;12.69;73.70;100126.33;1711801;82;27526;-65
2022/06/23 03:04:29;;;;;;;10.13;6.25;;;;;;;12.68;73.80;100125.30;1711754;82;25554;-65
2022/06/23 03:07:06;;;;;;;6.92;5.92;;;;;;;12.67;74.12;100135.36;1711791;82;25722;-65
2022/06/23 03:09:44;;;;;;;10.98;7.12;;;;;;;12.67;74.22;100135.36;1711768;82;25636;-65
2022/06/23 03:12:15;;;;;;;9.18;6.83;;;;;;;12.68;74.42;100138.32;1711735;82;25432;-65
2022/06/23 03:15:14;;;;;;;10.65;6.53;;;;;;;12.71;74.52;100135.50;1711775;82;28289;-65
2022/06/23 03:17:48;;;;;;;11.03;7.35;;;;;;;12.73;74.73;100140.03;1696689;82;25601;-65
2022/06/23 03:20:26;;;;;;;8.50;6.42;;;;;;;12.76;74.77;100143.45;1710499;82;25639;-64
2022/06/23 03:23:37;;;;;;;8.30;5.78;;;;;;;12.79;74.75;100144.17;1711756;83;26386;-65
2022/06/23 03:26:23;;;;;;;7.65;6.10;;;;;;;12.83;74.64;100143.73;1711436;82;25631;-66
2022/06/23 03:29:04;;;;;;;11.45;6.35;;;;;;;;;;1711027;82;28367;-64
2022/06/23 03:31:38;;;;;;;8.50;6.62;;;;;;;12.91;74.87;100149.47;1713308;82;25705;-64
2022/06/23 03:34:31;;;;;;;9.15;6.47;;;;;;;12.93;75.07;100151.28;1711538;82;25754;-64
2022/06/23 03:37:21;;;;;;;10.18;6.45;;;;;;;12.96;75.12;100153.35;1711479;82;25748;-66
2022/06/23 03:43:01;;;;;;;8.85;6.50;;;;;;;13.03;75.44;100170.70;1713027;82;27329;-64
2022/06/23 03:45:56;;;;;;;9.63;7.20;;;;;;;13.08;75.48;100165.08;1711565;82;25417;-65
2022/06/23 03:48:43;;;;;;;9.73;7.10;;;;;;;13.14;75.70;100167.03;1712463;83;25486;-65
2022/06/23 03:51:29;;;;;;;8.60;6.78;;;;;;;13.19;75.84;100166.05;1712165;82;25683;-65
2022/06/23 03:54:16;;;;;;;12.43;7.28;;;;;;;13.24;76.06;100174.01;1711493;82;25393;-64
2022/06/23 03:56:51;;;;;;;7.92;6.85;;;;;;;13.30;76.20;100163.19;1713301;82;27314;-65
2022/06/23 03:59:44;;;;;;;8.00;6.50;;;;;;;13.37;76.27;100164.84;1711633;82;26888;-65
2022/06/23 04:02:21;;;;;;;10.13;7.15;;;;;;;13.47;76.65;100171.00;1694595;83;25615;-65
2022/06/23 04:05:25;;;;;;;9.65;7.28;;;;;;;13.57;76.89;100174.67;1711589;82;25848;-65
2022/06/23 04:08:01;;;;;;;9.28;7.28;;;;;;;13.68;77.22;100179.16;1706386;83;25643;-64
2022/06/23 04:10:32;;;;;;;8.33;7.42;;;;;;;13.81;77.42;100182.96;1679880;84;27791;-64
2022/06/23 04:13:07;;;;;;;10.08;7.35;;;;;;;13.92;77.44;100178.47;1679708;85;25524;-63
2022/06/23 04:15:38;;;;;;;11.70;7.87;;;;;;;14.05;77.57;100184.19;1678415;84;25440;-64
2022/06/23 04:18:09;;;;;;;13.13;8.13;;;;;;;14.17;77.83;100184.22;1672017;84;25745;-65
2022/06/23 04:20:50;;;;;;;12.35;8.00;;;;;;;14.31;77.73;100194.01;1680051;85;25609;-65
2022/06/23 04:23:21;;;;;;;12.05;9.15;;;;;;;14.45;78.18;100193.70;1680052;84;27911;-66
2022/06/23 04:26:21;;;;;;;10.90;9.35;;;;;;;14.58;77.98;100191.23;1679036;85;25851;-66
2022/06/23 04:28:55;;;;;;;9.50;8.55;;;;;;;14.72;78.13;100193.66;1680209;84;25633;-66
2022/06/23 04:31:31;;;;;;;10.35;7.95;;;;;;;14.87;77.80;100197.64;1679962;84;25841;-65
2022/06/23 04:34:01;;;;;;;13.00;7.58;;;;;;;15.00;77.74;100200.59;1679907;85;25624;-66
2022/06/23 04:36:32;;;;;;;10.55;7.83;;;;;;;15.14;77.96;100207.05;1680090;85;26852;-65
2022/06/23 04:39:22;;;;;;;8.55;7.37;;;;;;;15.26;77.61;100209.76;1671762;85;25543;-65
2022/06/23 04:42:11;;;;;;;25.32;16.95;;;;;;;15.38;77.60;100208.95;1702785;83;25395;-65
2022/06/23 04:44:45;;;;;;;20.10;10.65;;;;;;;15.56;77.74;100216.31;1711542;82;25630;-67
2022/06/23 04:47:22;;;;;;;12.05;8.03;;;;;;;15.72;77.51;100224.55;1683664;84;25718;-64
2022/06/23 04:49:54;;;;;;;11.57;7.17;;;;;;;15.84;77.07;100226.48;1695520;84;27423;-64
2022/06/23 04:52:32;;;;;;;10.03;6.75;;;;;;;15.98;77.35;100225.51;1713833;82;25638;-66
2022/06/23 04:55:29;;;;;;;7.40;6.40;;;;;;;16.19;77.33;100229.97;1695507;84;25593;-65
2022/06/23 04:58:17;;;;;;;9.08;7.28;;;;;;;16.34;76.24;100235.24;1713640;83;25802;-65
2022/06/23 05:00:47;;;;;;;9.65;7.37;;;;;;;16.48;76.13;100243.02;1711012;83;25418;-64
2022/06/23 05:03:32;;;;;;;11.15;7.45;;;;;;;16.60;75.76;100246.48;1711540;83;25762;-64
2022/06/23 05:06:27;;;;;;;10.82;6.92;;;;;;;16.71;75.35;100252.20;1687414;83;25677;-65
2022/06/23 05:08:57;;;;;;;13.50;6.78;;;;;;;16.83;75.11;100261.47;1711409;82;25683;-65
2022/06/23 05:11:32;;;;;;;12.18;7.25;;;;;;;16.95;74.98;100258.68;1711607;83;25736;-65
2022/06/23 05:14:05;;;;;;;8.28;7.12;;;;;;;17.04;74.66;100268.84;1693151;82;25700;-65
2022/06/23 05:16:37;;;;;;;12.78;6.60;;;;;;;17.13;74.16;100270.05;1710386;82;27350;-64
2022/06/23 05:19:12;;;;;;;10.05;6.62;;;;;;;17.22;74.14;100272.60;1711535;82;25603;-64
2022/06/23 05:21:46;;;;;;;10.15;6.15;;;;;;;17.31;73.90;100271.25;1713186;83;25367;-64
2022/06/23 05:24:23;;;;;;;10.18;7.28;;;;;;;17.42;73.69;100272.88;1711524;82;26333;-64
2022/06/23 05:27:00;;;;;;;12.45;6.05;;;;;;;17.50;73.53;100277.92;1711681;82;25588;-66
2022/06/23 05:29:52;;;;;;;9.70;6.30;;;;;;;17.62;73.38;100283.84;1671808;84;27345;-67
2022/06/23 05:32:32;;;;;;;13.95;6.28;;;;;;;17.72;72.85;100290.12;1666965;85;25650;-67
2022/06/23 05:35:16;;;;;;;9.58;6.65;;;;;;;17.85;72.77;100289.45;1696158;84;25651;-67
2022/06/23 05:37:48;;;;;;;7.35;6.15;;;;;;;18.00;72.67;100291.95;1696629;84;25706;-65
2022/06/23 05:40:28;;;;;;;13.00;8.38;;;;;;;18.14;72.29;100296.91;1711892;82;25678;-64
2022/06/23 05:43:01;;;;;;;9.75;6.50;;;;;;;18.28;72.19;100292.49;1711860;83;28105;-64
2022/06/23 05:45:38;;;;;;;11.63;6.22;;;;;;;18.45;71.58;100293.99;1713107;83;25487;-62
2022/06/23 05:48:10;;;;;;;11.53;5.83;;;;;;;18.65;71.64;100296.72;1700937;83;25481;-64
2022/06/23 05:51:02;;;;;;;7.53;5.55;;;;;;;18.84;71.48;100292.58;1692692;83;25614;-64
2022/06/23 05:54:07;;;;;;;9.75;5.33;;;;;;;19.07;71.24;100301.95;1672572;84;25469;-65
2022/06/23 05:56:54;;;;;;;10.45;5.60;;;;;;;19.29;70.36;100297.05;1695564;84;27534;-65
2022/06/23 05:59:26;;;;;;;12.00;5.28;;;;;;;19.50;69.75;100288.94;1712321;82;25376;-65
2022/06/23 06:02:10;;;;;;;7.17;5.45;;;;;;;19.70;69.49;100297.81;1704267;82;25776;-65
2022/06/23 06:04:56;;;;;;;8.45;5.62;;;;;;;19.87;68.72;100294.58;1712889;82;25748;-65
2022/06/23 06:07:35;;;;;;;8.35;5.17;;;;;;;20.09;68.81;100294.83;1716419;82;25723;-66
2022/06/23 06:10:07;;;;;;;5.40;4.50;;;;;;;20.28;68.05;100302.14;1655923;85;27179;-65
2022/06/23 06:12:37;;;;;;;4.95;4.45;;;;;;;20.42;66.95;100302.28;1611830;87;25738;-65
2022/06/23 06:15:28;;;;;;;7.47;4.25;;;;;;;20.55;66.57;100306.95;1603215;89;25842;-64
2022/06/23 06:18:12;;;;;;;5.95;4.28;;;;;;;20.73;65.93;100310.48;1658983;86;26387;-65
2022/06/23 06:20:38;;;;;;;5.78;4.70;;;;;;;20.88;64.89;100312.20;1606788;89;25608;-65
2022/06/23 06:23:33;;;;;;;8.73;4.90;;;;;;;21.02;64.55;100321.16;1658199;86;28107;-65
2022/06/23 06:26:00;;;;;;;6.12;4.60;;;;;;;21.16;63.57;100314.98;1660654;86;25751;-65
2022/06/23 06:28:33;;;;;;;7.10;3.98;;;;;;;21.32;63.75;100313.33;1659881;86;25583;-65
2022/06/23 06:31:26;;;;;;;8.20;4.22;;;;;;;21.49;62.96;100314.09;1659819;85;27832;-64
2022/06/23 06:34:00;;;;;;;7.92;4.50;;;;;;;21.64;62.87;100311.64;1660195;86;25612;-65
2022/06/23 06:36:36;;;;;;;9.45;4.25;;;;;;;21.85;62.89;100309.39;1660292;86;27527;-65
2022/06/23 06:39:23;;;;;;;6.05;3.72;;;;;;;22.03;62.40;100313.00;1641428;86;26885;-65
2022/06/23 06:44:59;;;;;;;8.60;4.53;;;;;;;22.36;60.84;100319.48;1543336;91;25647;-65
2022/06/23 06:47:30;;;;;;;7.60;4.10;;;;;;;22.52;60.44;100320.50;1563005;89;25418;-65
2022/06/23 06:50:06;;;;;;;5.92;3.98;;;;;;;22.69;60.44;100328.01;1640045;86;28106;-65
2022/06/23 06:52:31;;;;;;;5.35;3.67;;;;;;;22.84;59.98;100324.69;1625408;86;25468;-65
2022/06/23 06:55:21;;;;;;;8.28;4.47;;;;;;;23.00;59.76;100324.91;1649203;86;25461;-65
2022/06/23 06:58:18;;;;;;;5.65;3.98;;;;;;;23.16;59.17;100327.33;1646736;86;25744;-65
2022/06/23 07:00:59;;;;;;;8.73;3.27;;;;;;;23.34;58.64;100328.08;1641392;86;25736;-65
2022/06/23 07:03:27;;;;;;;7.58;3.62;;;;;;;23.55;58.04;100329.23;1635133;86;27428;-64
2022/06/23 07:06:05;;;;;;;6.97;3.43;;;;;;;23.74;57.19;100327.44;1635585;86;26012;-65
2022/06/23 07:09:05;;;;;;;5.65;3.22;;;;;;;23.92;56.95;100332.15;1638304;86;25738;-66
2022/06/23 07:12:02;;;;;;;5.95;3.50;;;;;;;24.10;56.22;100328.73;1657235;85;26331;-66
2022/06/23 07:14:55;;;;;;;5.37;3.52;;;;;;;24.33;55.57;100333.78;1657312;85;25654;-65
2022/06/23 07:17:27;;;;;;;10.63;4.28;;;;;;;24.52;55.00;100333.88;1654459;85;28039;-65
2022/06/23 07:20:11;;;;;;;8.28;3.70;;;;;;;24.74;54.55;100343.44;1643985;86;25790;-64
2022/06/23 07:22:45;;;;;;;8.45;3.98;;;;;;;24.92;54.18;100345.50;1607211;87;25614;-64
2022/06/23 07:25:20;;;;;;;12.58;3.87;;;;;;;25.12;53.57;100344.36;1621540;86;25689;-64
2022/06/23 07:28:07;;;;;;;11.18;4.30;;;;;;;25.27;52.89;100346.45;1608036;87;25751;-66
2022/06/23 07:30:43;;;;;;;5.78;3.00;;;;;;;25.39;52.55;100343.78;1605836;86;27389;-65
2022/06/23 07:33:21;;;;;;;5.62;2.70;;;;;;;25.62;51.96;100347.91;1656388;85;25686;-65
2022/06/23 07:36:08;;;;;;;5.35;3.40;;;;;;;25.79;51.27;100348.32;1615824;85;25748;-64
2022/06/23 07:38:52;;;;;;;4.62;3.00;;;;;;;26.00;50.94;100341.80;1616252;87;25687;-65
2022/06/23 07:41:35;;;;;;;5.85;3.17;;;;;;;26.23;50.57;100344.50;1622749;88;25681;-65
2022/06/23 07:44:06;;;;;;;5.03;2.77;;;;;;;26.50;50.29;100346.53;1582314;88;27527;-65
2022/06/23 07:46:37;;;;;;;4.67;2.95;;;;;;;26.76;48.95;100349.16;1621445;88;25655;-65
2022/06/23 07:49:05;;;;;;;3.95;2.60;;;;;;;26.93;48.41;100350.87;1621307;88;25850;-64
2022/06/23 07:51:33;;;;;;;7.87;2.70;;;;;;;27.03;46.54;100348.53;1621489;88;25677;-65
2022/06/23 07:54:00;;;;;;;7.33;2.33;;;;;;;27.10;46.68;100353.19;1615013;88;25730;-65
2022/06/23 07:56:31;;;;;;;4.40;2.80;;;;;;;27.31;45.56;100349.31;1656151;84;28002;-65
2022/06/23 07:59:06;;;;;;;5.05;2.58;;;;;;;27.49;45.66;100349.60;1682468;85;25673;-65
2022/06/23 08:01:47;;;;;;;3.77;2.25;;;;;;;27.66;44.67;100354.05;1682575;85;25624;-64
2022/06/23 08:04:39;;;;;;;5.97;2.52;;;;;;;27.70;43.93;100358.14;1683651;85;26248;-65
2022/06/23 08:07:09;;;;;;;4.00;2.62;;;;;;;27.74;44.18;100347.77;1683573;83;25434;-65
2022/06/23 08:09:43;;;;;;;5.05;3.17;;;;;;;27.93;43.10;100352.56;1683888;85;27394;-65
2022/06/23 08:18:04;;;;;;;4.97;2.85;;;;;;;28.00;41.80;100343.92;1683759;84;25638;-65
2022/06/23 08:20:35;;;;;;;2.90;2.60;;;;;;;27.79;41.48;100347.85;1682734;85;25566;-66
2022/06/23 08:23:04;;;;;;;4.37;2.60;;;;;;;27.58;41.49;100348.44;1683861;85;28199;-65
2022/06/23 08:25:31;;;;;;;6.35;3.17;;;;;;;27.41;41.38;100350.31;1683805;85;25679;-67
2022/06/23 08:27:59;;;;;;;6.58;2.77;;;;;;;27.20;41.47;100346.67;1683803;84;25624;-65
2022/06/23 08:30:27;;;;;;;3.22;2.55;;;;;;;26.97;41.34;100350.23;1681632;85;25738;-66
2022/06/23 08:32:56;;;;;;;4.62;2.55;;;;;;;26.74;41.65;100346.80;1683830;85;25747;-67
2022/06/23 08:35:53;;;;;;;3.77;2.70;;;;;;;26.79;42.32;100343.55;1656161;85;28065;-66
2022/06/23 08:38:30;;;;;;;4.35;3.02;;;;;;;26.80;41.80;100347.10;1672620;84;25762;-67
2022/06/23 08:41:11;;;;;;;2.85;2.47;;;;;;;26.82;41.78;100346.88;1659110;84;25683;-66
2022/06/23 08:44:04;;;;;;;3.52;2.30;;;;;;;26.93;40.81;100350.09;1670008;84;25795;-67
2022/06/23 08:46:51;;;;;;;8.40;2.85;;;;;;;27.26;41.66;100346.19;1673738;84;25603;-65
2022/06/23 08:49:48;;;;;;;4.65;2.70;;;;;;;27.82;41.74;100342.25;1677321;84;27356;-65
2022/06/23 08:52:36;;;;;;;3.40;2.30;;;;;;;28.44;40.97;100351.55;1647930;86;25854;-65
2022/06/23 08:55:20;;;;;;;6.83;2.20;;;;;;;28.81;40.02;100348.14;1677237;84;25852;-65
2022/06/23 08:57:57;;;;;;;3.00;1.82;;;;;;;29.29;39.31;100350.03;1615924;88;26365;-64
2022/06/23 09:00:55;;;;;;;2.83;1.98;;;;;;;29.72;38.35;100351.68;1608053;88;25528;-65
2022/06/23 09:03:42;;;;;;;3.33;2.08;;;;;;;30.12;37.07;100355.56;1657841;85;27441;-64
2022/06/23 09:06:40;;;;;;;4.62;2.20;;;;;;;30.53;36.49;100349.81;1604322;88;25707;-65
2022/06/23 09:09:32;;;;;;;3.02;2.27;;;;;;;30.68;35.06;100345.95;1593665;88;25754;-64
2022/06/23 09:16:27;;;;;;;5.33;2.22;;;;;;;30.16;34.70;100354.86;1590126;88;25761;-65
2022/06/23 09:19:18;;;;;;;2.52;2.10;;;;;;;29.70;34.72;100365.28;1608110;88;27107;-63
2022/06/23 09:22:01;;;;;;;3.50;2.00;;;;;;;29.35;34.67;100363.58;1588125;89;26377;-64
2022/06/23 09:24:41;;;;;;;3.20;2.22;;;;;;;29.02;34.57;100363.57;1629869;86;25645;-64
2022/06/23 09:27:45;;;;;;;4.40;2.47;;;;;;;28.97;35.59;100362.70;1601301;88;26211;-64
2022/06/23 09:30:37;;;;;;;6.90;2.33;;;;;;;29.26;35.15;100366.21;1629033;88;25710;-64
2022/06/23 09:33:48;;;;;;;5.40;2.67;;;;;;;29.72;35.52;100366.39;1632998;86;26736;-65
2022/06/23 09:36:26;;;;;;;2.35;2.02;;;;;;;30.10;35.19;100375.52;1683619;84;25755;-63
2022/06/23 09:39:09;;;;;;;5.45;2.92;;;;;;;30.53;34.52;100369.34;1674793;84;25792;-63
2022/06/23 09:41:50;;;;;;;2.25;2.00;;;;;;;30.76;34.27;100369.63;1667995;84;26284;-64
2022/06/23 09:44:48;;;;;;;6.58;2.40;;;;;;;30.75;33.18;100376.45;1668071;84;25779;-63
2022/06/23 09:47:43;;;;;;;3.92;2.15;;;;;;;30.42;32.95;100370.27;1703384;82;27326;-63
2022/06/23 09:50:23;;;;;;;2.98;1.98;;;;;;;30.15;33.28;100371.41;1694666;83;25666;-63
2022/06/23 09:53:07;;;;;;;4.12;2.10;;;;;;;30.38;33.83;100368.98;1712461;83;25803;-64
2022/06/23 09:55:55;;;;;;;3.52;2.27;;;;;;;30.41;33.24;100374.28;1713169;83;26186;-64
2022/06/23 09:58:45;;;;;;;4.97;2.83;;;;;;;30.20;33.27;100377.84;1714756;83;33151;-64
2022/06/23 10:01:43;;;;;;;3.02;2.10;;;;;;;29.89;33.16;100373.34;1714463;83;27328;-64
2022/06/23 10:04:50;;;;;;;5.20;2.87;;;;;;;29.52;32.96;100369.30;1714431;83;25678;-62
2022/06/23 10:07:40;;;;;;;2.92;2.25;;;;;;;29.21;33.99;100373.86;1714221;83;25660;-64
2022/06/23 10:10:34;;;;;;;4.37;2.45;;;;;;;29.71;34.28;100365.43;1714090;83;26418;-64
2022/06/23 10:13:35;;;;;;;7.78;2.02;;;;;;;30.19;34.24;100362.34;1714646;83;25284;-64
2022/06/23 10:16:32;;;;;;;4.45;1.92;;;;;;;30.79;33.95;100362.37;1710418;83;26875;-63
2022/06/23 10:19:19;;;;;;;3.23;2.23;;;;;;;31.30;33.71;100358.14;1714591;83;25634;-63
2022/06/23 10:21:57;;;;;;;3.35;2.30;;;;;;;31.43;32.59;100367.27;1714591;83;25558;-63
2022/06/23 10:24:44;;;;;;;5.50;2.00;;;;;;;31.24;32.19;100366.30;1714616;83;25814;-63
2022/06/23 10:27:59;;;;;;;3.70;2.52;;;;;;;31.04;31.91;100365.77;1713899;83;25782;-64
2022/06/23 10:30:48;;;;;;;3.47;2.40;;;;;;;30.92;32.21;100371.50;1686931;83;27360;-63
2022/06/23 10:33:44;;;;;;;5.25;2.35;;;;;;;30.84;32.24;100377.17;1714254;83;25858;-64
2022/06/23 10:36:55;;;;;;;3.58;2.12;;;;;;;30.69;32.19;100374.04;1822181;77;25612;-61
2022/06/23 10:39:48;;;;;;;4.90;2.20;;;;;;;30.80;33.03;100382.87;1821936;77;25700;-62
2022/06/23 10:42:35;;;;;;;3.02;2.52;;;;;;;30.97;32.91;100381.37;1821751;77;25584;-62
2022/06/23 10:45:36;;;;;;;3.25;2.02;;;;;;;31.16;32.75;100373.97;1820032;78;27390;-62
2022/06/23 10:48:20;;;;;;;2.80;2.22;;;;;;;31.61;32.61;100369.47;1821308;77;25692;-62
2022/06/23 10:51:04;;;;;;;3.45;2.25;;;;;;;32.05;31.90;100360.95;1821878;77;25526;-62
2022/06/23 10:53:58;;;;;;;4.00;2.45;;;;;;;32.35;31.42;100363.02;1800232;78;26274;-63
2022/06/23 10:56:41;;;;;;;2.80;1.92;;;;;;;32.33;30.68;100360.51;1821113;78;25640;-62
2022/06/23 10:59:30;;;;;;;3.67;2.40;;;;;;;32.03;29.99;100368.40;1821566;77;26920;-63
2022/06/23 11:02:32;;;;;;;2.33;1.92;;;;;;;31.68;30.33;100369.06;1821325;78;25573;-61
2022/06/23 11:05:29;;;;;;;4.15;2.08;;;;;;;31.85;30.90;100370.44;1821812;77;25673;-62
2022/06/23 11:08:12;;;;;;;2.77;1.90;;;;;;;32.80;30.72;100376.94;1729559;82;26004;-61
2022/06/23 11:11:05;;;;;;;3.22;1.92;;;;;;;32.80;30.72;100376.94;1729386;82;25811;-62
2022/06/23 11:13:52;;;;;;;3.52;1.80;;;;;;;33.14;30.48;100357.73;1729544;81;27340;-62
2022/06/23 11:16:57;;;;;;;2.72;2.00;;;;;;;33.33;29.71;100354.98;1729336;82;25812;-62
2022/06/23 11:20:14;;;;;;;4.97;1.77;;;;;;;32.95;28.88;100365.31;1729638;82;25664;-63
2022/06/23 11:23:18;;;;;;;3.12;1.90;;;;;;;32.38;28.94;100367.68;1729251;81;25678;-61
2022/06/23 11:26:35;;;;;;;5.00;2.50;;;;;;;31.53;29.43;100364.58;1728933;82;25692;-62
2022/06/23 11:29:33;;;;;;;4.65;2.10;;;;;;;31.53;29.43;100364.58;1725124;81;28187;-63
2022/06/23 11:32:31;;;;;;;3.83;2.15;;;;;;;31.52;30.17;100356.82;1729125;82;25757;-63
2022/06/23 11:35:16;;;;;;;;;;;;;;;31.88;30.61;100370.16;1731002;82;25561;-63
2022/06/23 11:37:53;;;;;;;3.58;2.45;;;;;;;32.27;30.29;100365.16;1725349;82;25811;-63
2022/06/23 11:40:30;;;;;;;4.55;1.85;;;;;;;32.27;29.69;100364.53;1726370;82;25510;-63
2022/06/23 11:43:19;;;;;;;2.65;1.90;;;;;;;32.06;29.05;100364.70;1726182;81;27415;-62
2022/06/23 11:46:09;;;;;;;5.12;1.85;;;;;;;31.70;28.56;100356.17;1821136;77;25690;-61
2022/06/23 11:49:17;;;;;;;3.77;2.17;;;;;;;31.38;29.04;100354.47;1821617;77;25615;-63
2022/06/23 11:52:01;;;;;;;3.33;2.25;;;;;;;31.49;29.60;100357.69;1799398;78;27841;-63
2022/06/23 11:54:45;;;;;;;2.83;2.02;;;;;;;31.86;29.21;100357.22;1821381;77;25684;-61
2022/06/23 11:57:54;;;;;;;4.50;2.02;;;;;;;32.27;29.62;100362.36;1820589;77;27317;-62
2022/06/23 12:00:29;;;;;;;;;;;;;;;32.62;29.33;100357.41;1802368;78;25608;-63
2022/06/23 12:03:36;;;;;;;2.22;1.87;;;;;;;32.84;28.50;100360.13;1819371;77;25474;-63
2022/06/23 12:06:20;;;;;;;2.95;2.00;;;;;;;33.06;28.98;100355.06;1696632;83;26298;-63
2022/06/23 12:09:03;;;;;;;1.70;1.60;;;;;;;33.47;28.12;100355.13;1695371;84;25515;-62
2022/06/23 12:11:32;;;;;;;2.10;1.90;;;;;;;33.47;28.12;100355.13;1686885;83;27367;-63
2022/06/23 12:14:02;;;;;;;4.70;1.98;;;;;;;33.63;27.86;100357.50;1687263;84;26443;-61
2022/06/23 12:16:30;;;;;;;3.37;2.15;;;;;;;33.85;27.32;100356.73;1696233;84;25765;-64
2022/06/23 12:19:01;;;;;;;2.00;1.62;;;;;;;33.93;26.84;100348.75;1696148;84;26263;-63
2022/06/23 12:22:02;;;;;;;2.87;1.80;;;;;;;34.00;27.21;100358.87;1695997;84;25782;-63
2022/06/23 12:24:49;;;;;;;2.75;1.82;;;;;;;34.19;26.86;100361.81;1696807;83;27562;-63
2022/06/23 12:27:30;;;;;;;3.92;2.55;;;;;;;34.29;26.06;100351.34;1695685;84;25675;-65
2022/06/23 12:30:18;;;;;;;7.60;1.92;;;;;;;34.43;26.27;100352.73;1696064;83;25686;-62
2022/06/23 12:33:04;;;;;;;2.72;1.92;;;;;;;34.29;25.77;100356.19;1697434;84;26277;-65
2022/06/23 12:36:13;;;;;;;2.98;1.80;;;;;;;33.97;25.83;100349.39;1702134;84;25803;-63
2022/06/23 12:38:45;;;;;;;;;;;;;;;34.00;25.93;100347.66;1695240;84;27259;-63
2022/06/23 12:41:32;;;;;;;2.10;1.55;;;;;;;34.08;25.78;100352.33;1701083;84;25712;-63
2022/06/23 12:44:19;;;;;;;2.40;1.92;;;;;;;33.95;25.69;100346.89;1799310;78;25707;-62
2022/06/23 12:47:22;;;;;;;3.47;1.87;;;;;;;33.47;25.73;100349.53;1818629;77;25675;-62
2022/06/23 12:50:15;;;;;;;2.27;1.40;;;;;;;33.06;26.11;100340.42;1732141;82;25851;-62
2022/06/23 12:53:11;;;;;;;2.50;1.80;;;;;;;33.06;26.55;100346.03;1731699;82;27342;-62
2022/06/23 12:55:57;;;;;;;3.70;1.90;;;;;;;33.32;26.33;100356.99;1731976;82;25711;-62
2022/06/23 12:58:39;;;;;;;2.05;1.80;;;;;;;33.46;25.77;100349.39;1731936;82;25845;-62